createdAt,value
2023-01-11T00:02:10.864Z,69.75
2023-01-11T00:05:12.036Z,69.31
2023-01-11T00:07:41.164Z,68.20
2023-01-11T00:10:09.042Z,68.02
2023-01-11T00:12:36.638Z,68.01
2023-01-11T00:15:13.571Z,68.42
2023-01-11T00:17:44.146Z,69.16
2023-01-11T00:20:17.899Z,69.29
2023-01-11T00:22:52.636Z,68.15
2023-01-11T00:25:22.079Z,67.80
2023-01-11T00:27:49.711Z,67.77
2023-01-11T00:30:23.323Z,68.03
2023-01-11T00:33:00.394Z,68.42
2023-01-11T00:35:28.059Z,69.15
2023-01-11T00:37:59.897Z,68.98
2023-01-11T00:40:33.265Z,67.75
2023-01-11T00:43:22.584Z,67.15
2023-01-11T00:46:10.798Z,67.14
2023-01-11T00:48:38.506Z,67.67
2023-01-11T00:51:08.923Z,68.36
2023-01-11T00:53:38.709Z,69.22
2023-01-11T00:56:11.224Z,69.04
2023-01-11T00:58:38.554Z,67.77
2023-01-11T01:01:15.340Z,67.25
2023-01-11T01:03:49.054Z,67.35
2023-01-11T01:06:23.159Z,67.69
2023-01-11T01:08:55.819Z,68.14
2023-01-11T01:11:28.123Z,68.93
2023-01-11T01:14:14.697Z,68.82
2023-01-11T01:16:53.043Z,67.35
2023-01-11T01:19:21.458Z,66.86
2023-01-11T01:21:55.896Z,67.02
2023-01-11T01:24:28.193Z,67.32
2023-01-11T01:26:59.726Z,67.97
2023-01-11T01:29:41.204Z,68.53
2023-01-11T01:32:10.711Z,68.36
2023-01-11T01:34:38.096Z,67.20
2023-01-11T01:37:06.140Z,66.76
2023-01-11T01:39:33.604Z,66.93
2023-01-11T01:42:01.331Z,67.19
2023-01-11T01:44:53.960Z,67.41
2023-01-11T01:47:34.476Z,67.90
2023-01-11T01:50:06.988Z,68.52
2023-01-11T01:52:34.194Z,68.38
2023-01-11T01:55:05.473Z,67.31
2023-01-11T01:57:40.087Z,66.63
2023-01-11T02:00:11.159Z,66.90
2023-01-11T02:02:39.112Z,67.31
2023-01-11T02:05:10.358Z,67.80
2023-01-11T02:07:44.552Z,68.25
2023-01-11T02:10:30.856Z,69.03
2023-01-11T02:13:14.419Z,68.71
2023-01-11T02:16:07.668Z,67.36
2023-01-11T02:18:40.426Z,66.77
2023-01-11T02:21:34.540Z,66.88
2023-01-11T02:24:10.391Z,67.32
2023-01-11T02:27:02.200Z,67.71
2023-01-11T02:30:13.818Z,68.53
2023-01-11T02:33:14.216Z,67.86
2023-01-11T02:36:07.710Z,66.66
2023-01-11T02:38:43.823Z,66.53
2023-01-11T02:41:54.532Z,67.04
2023-01-11T02:44:46.694Z,67.56
2023-01-11T02:47:23.017Z,67.99
2023-01-11T02:50:03.608Z,68.16
2023-01-11T02:52:49.263Z,68.08
2023-01-11T02:55:32.214Z,66.88
2023-01-11T02:58:01.556Z,66.35
2023-01-11T03:00:41.634Z,66.72
2023-01-11T03:03:15.222Z,67.20
2023-01-11T03:05:56.754Z,67.36
2023-01-11T03:08:46.704Z,68.02
2023-01-11T03:11:35.974Z,67.77
2023-01-11T03:14:32.813Z,66.42
2023-01-11T03:17:17.409Z,66.15
2023-01-11T03:19:51.495Z,66.83
2023-01-11T03:22:29.218Z,67.44
2023-01-11T03:25:21.617Z,68.14
2023-01-11T03:28:06.381Z,68.81
2023-01-11T03:30:38.048Z,68.18
2023-01-11T03:33:30.644Z,66.57
2023-01-11T03:36:08.744Z,66.14
2023-01-11T03:38:56.864Z,66.44
2023-01-11T03:41:29.631Z,66.88
2023-01-11T03:43:57.217Z,67.28
2023-01-11T03:46:27.574Z,67.95
2023-01-11T03:49:04.150Z,67.88
2023-01-11T03:51:33.794Z,66.86
2023-01-11T03:54:04.036Z,66.19
2023-01-11T03:57:13.142Z,66.42
2023-01-11T03:59:44.385Z,66.95
2023-01-11T04:02:21.964Z,67.47
2023-01-11T04:04:55.268Z,68.21
2023-01-11T04:07:25.866Z,68.76
2023-01-11T04:09:53.980Z,68.61
2023-01-11T04:12:21.400Z,67.47
2023-01-11T04:14:48.687Z,67.31
2023-01-11T04:17:22.673Z,67.83
2023-01-11T04:19:53.332Z,68.48
2023-01-11T04:22:21.508Z,69.64
2023-01-11T04:24:53.545Z,70.16
2023-01-11T04:27:24.102Z,69.88
2023-01-11T04:29:54.205Z,68.66
2023-01-11T04:32:28.247Z,67.93
2023-01-11T04:34:58.400Z,67.80
2023-01-11T04:37:28.775Z,68.13
2023-01-11T04:39:58.881Z,68.74
2023-01-11T04:42:31.880Z,69.52
2023-01-11T04:44:59.450Z,69.27
2023-01-11T04:47:34.992Z,68.31
2023-01-11T04:50:23.317Z,67.83
2023-01-11T04:53:02.941Z,68.03
2023-01-11T04:55:30.425Z,68.34
2023-01-11T04:57:58.125Z,68.78
2023-01-11T05:00:31.755Z,69.24
2023-01-11T05:03:04.273Z,69.12
2023-01-11T05:06:57.203Z,67.70
2023-01-11T05:09:32.922Z,67.36
2023-01-11T05:12:12.867Z,67.69
2023-01-11T05:14:40.449Z,68.05
2023-01-11T05:17:07.940Z,68.64
2023-01-11T05:19:38.341Z,68.84
2023-01-11T05:22:05.665Z,67.77
2023-01-11T05:24:39.048Z,67.08
2023-01-11T05:27:31.992Z,67.03
2023-01-11T05:30:01.758Z,67.56
2023-01-11T05:33:45.081Z,68.09
2023-01-11T05:37:16.236Z,69.16
2023-01-11T05:40:29.517Z,67.26
2023-01-11T05:42:57.286Z,66.52
2023-01-11T05:45:33.766Z,66.48
2023-01-11T05:48:24.443Z,67.42
2023-01-11T05:50:55.586Z,68.49
2023-01-11T05:53:24.051Z,70.02
2023-01-11T05:56:00.321Z,70.11
2023-01-11T05:58:30.252Z,68.97
2023-01-11T06:01:25.315Z,68.30
2023-01-11T06:04:11.336Z,69.04
2023-01-11T06:07:06.383Z,70.06
2023-01-11T06:09:48.448Z,71.37
2023-01-11T06:12:18.821Z,70.41
2023-01-11T06:14:58.006Z,68.61
2023-01-11T06:18:14.438Z,68.85
2023-01-11T06:20:59.435Z,69.96
2023-01-11T06:23:39.327Z,71.22
2023-01-11T06:26:16.727Z,72.23
2023-01-11T06:28:49.967Z,71.61
2023-01-11T06:31:18.276Z,70.03
2023-01-11T06:33:46.246Z,70.05
2023-01-11T06:36:22.338Z,70.53
2023-01-11T06:38:49.328Z,71.72
2023-01-11T06:41:16.416Z,72.39
2023-01-11T06:43:46.937Z,71.98
2023-01-11T06:46:18.885Z,70.74
2023-01-11T06:48:48.012Z,70.14
2023-01-11T06:51:15.503Z,70.58
2023-01-11T06:53:43.055Z,71.42
2023-01-11T06:56:18.750Z,72.09
2023-01-11T06:58:47.136Z,71.69
2023-01-11T07:01:30.939Z,70.16
2023-01-11T07:04:01.430Z,69.87
2023-01-11T07:06:32.230Z,70.61
2023-01-11T07:09:25.421Z,71.37
2023-01-11T07:11:55.356Z,72.30
2023-01-11T07:14:25.220Z,73.49
2023-01-11T07:16:57.349Z,72.80
2023-01-11T07:19:32.124Z,70.94
2023-01-11T07:21:59.408Z,70.71
2023-01-11T07:24:26.737Z,71.51
2023-01-11T07:27:01.943Z,72.20
2023-01-11T07:29:31.914Z,73.35
2023-01-11T07:31:59.677Z,72.81
2023-01-11T07:34:26.986Z,71.08
2023-01-11T07:37:01.129Z,70.79
2023-01-11T07:39:42.975Z,71.32
2023-01-11T07:42:29.758Z,72.45
2023-01-11T07:44:57.147Z,73.62
2023-01-11T07:47:24.693Z,72.64
2023-01-11T07:49:51.810Z,70.96
2023-01-11T07:52:19.301Z,70.65
2023-01-11T07:54:46.438Z,71.10
2023-01-11T07:57:32.418Z,71.85
2023-01-11T07:59:59.757Z,73.52
2023-01-11T08:02:26.991Z,72.40
2023-01-11T08:04:54.102Z,70.76
2023-01-11T08:07:21.613Z,70.38
2023-01-11T08:09:48.976Z,71.19
2023-01-11T08:12:35.473Z,72.41
2023-01-11T08:15:02.792Z,73.60
2023-01-11T08:17:30.033Z,72.83
2023-01-11T08:19:57.435Z,71.05
2023-01-11T08:22:24.494Z,70.88
2023-01-11T08:24:53.250Z,71.39
2023-01-11T08:27:20.416Z,71.73
2023-01-11T08:29:47.351Z,73.00
2023-01-11T08:32:14.304Z,72.42
2023-01-11T08:34:41.361Z,70.73
2023-01-11T08:37:09.011Z,70.34
2023-01-11T08:39:35.995Z,71.22
2023-01-11T08:42:03.552Z,71.60
2023-01-11T08:44:34.664Z,72.43
2023-01-11T08:47:03.250Z,71.97
2023-01-11T08:49:34.095Z,70.82
2023-01-11T08:52:01.021Z,70.30
2023-01-11T08:54:29.944Z,70.82
2023-01-11T08:56:57.274Z,71.91
2023-01-11T08:59:24.325Z,72.88
2023-01-11T09:01:51.473Z,72.32
2023-01-11T09:04:25.252Z,70.74
2023-01-11T09:06:53.450Z,70.23
2023-01-11T09:09:22.096Z,70.38
2023-01-11T09:12:04.724Z,71.18
2023-01-11T09:14:32.622Z,71.79
2023-01-11T09:16:59.739Z,71.02
2023-01-11T09:19:27.043Z,69.08
2023-01-11T09:21:57.246Z,68.70
2023-01-11T09:24:24.096Z,69.23
2023-01-11T09:26:51.208Z,70.07
2023-01-11T09:29:19.244Z,72.36
2023-01-11T09:31:46.338Z,71.60
2023-01-11T09:34:13.924Z,69.79
2023-01-11T09:36:40.961Z,69.34
2023-01-11T09:39:08.699Z,69.96
2023-01-11T09:42:06.181Z,70.96
2023-01-11T09:44:35.511Z,72.08
2023-01-11T09:47:44.918Z,70.80
2023-01-11T09:50:26.960Z,69.10
2023-01-11T09:53:08.210Z,69.48
2023-01-11T09:55:41.442Z,70.31
2023-01-11T09:58:16.053Z,71.17
2023-01-11T10:01:07.083Z,70.68
2023-01-11T15:32:47.476Z,79.47
2023-01-11T15:35:32.540Z,73.21
2023-01-11T15:38:20.017Z,73.10
2023-01-11T15:40:47.909Z,73.32
2023-01-11T15:43:37.969Z,72.88
2023-01-11T15:46:45.360Z,71.44
2023-01-11T15:50:25.222Z,71.88
2023-01-11T15:54:27.988Z,73.03
2023-01-11T15:58:00.304Z,73.83
2023-01-11T16:00:56.393Z,71.34
2023-01-11T16:03:31.859Z,70.56
2023-01-11T16:06:10.755Z,70.83
2023-01-11T16:09:08.070Z,71.67
2023-01-11T16:12:19.241Z,73.27
2023-01-11T16:15:07.785Z,71.64
2023-01-11T16:17:41.004Z,70.88
2023-01-11T16:20:26.481Z,71.12
2023-01-11T16:23:01.916Z,71.58
2023-01-11T16:25:33.928Z,72.46
2023-01-11T16:28:04.466Z,71.67
2023-01-11T16:30:31.861Z,70.49
2023-01-11T16:33:37.335Z,70.38
2023-01-11T16:36:11.303Z,71.40
2023-01-11T16:38:55.867Z,72.09
2023-01-11T16:41:26.065Z,73.16
2023-01-11T16:44:05.668Z,71.88
2023-01-11T16:47:04.564Z,70.50
2023-01-11T16:49:33.822Z,70.20
2023-01-11T16:52:01.395Z,70.50
2023-01-11T16:54:43.676Z,71.36
2023-01-11T16:57:10.999Z,72.66
2023-01-11T17:00:39.606Z,71.68
2023-01-11T17:03:23.962Z,70.21
2023-01-11T17:06:00.669Z,70.14
2023-01-11T17:08:53.048Z,71.05
2023-01-11T17:11:24.647Z,71.69
2023-01-11T17:14:18.127Z,72.54
2023-01-11T17:16:47.197Z,71.79
2023-01-11T17:19:23.890Z,70.10
2023-01-11T17:21:53.518Z,69.54
2023-01-11T17:24:24.970Z,71.18
2023-01-11T17:27:02.582Z,71.76
2023-01-11T17:29:42.958Z,72.76
2023-01-11T17:32:15.346Z,72.01
2023-01-11T17:34:42.329Z,70.58
2023-01-11T17:37:13.648Z,70.61
2023-01-11T17:39:44.813Z,70.89
2023-01-11T17:42:32.825Z,72.18
2023-01-11T17:45:13.669Z,73.41
2023-01-11T17:47:50.685Z,72.08
2023-01-11T17:50:25.203Z,69.77
2023-01-11T17:52:55.177Z,70.14
2023-01-11T17:55:25.953Z,70.90
2023-01-11T17:58:27.245Z,72.26
2023-01-11T18:01:18.195Z,73.30
2023-01-11T18:03:52.021Z,71.38
2023-01-11T18:06:42.513Z,69.53
2023-01-11T18:09:26.673Z,69.16
2023-01-11T18:11:54.370Z,69.19
2023-01-11T18:14:26.983Z,69.94
2023-01-11T18:17:00.796Z,70.46
2023-01-11T18:19:33.086Z,70.01
2023-01-11T18:22:03.432Z,68.80
2023-01-11T18:24:33.414Z,68.00
2023-01-11T18:27:14.238Z,68.75
2023-01-11T18:29:44.716Z,69.10
2023-01-11T18:32:15.243Z,69.83
2023-01-11T18:34:44.138Z,69.74
2023-01-11T18:37:11.585Z,68.63
2023-01-11T18:39:40.175Z,68.26
2023-01-11T18:42:08.806Z,68.58
2023-01-11T18:44:39.783Z,70.04
2023-01-11T18:47:20.757Z,71.25
2023-01-11T18:49:52.418Z,70.61
2023-01-11T18:52:20.804Z,69.01
2023-01-11T18:54:52.348Z,68.41
2023-01-11T18:57:20.009Z,68.88
2023-01-11T18:59:56.719Z,70.01
2023-01-11T19:05:22.115Z,70.48
2023-01-11T19:07:49.575Z,68.86
2023-01-11T19:10:18.755Z,68.68
2023-01-11T19:12:46.427Z,69.40
2023-01-11T19:15:16.315Z,69.82
2023-01-11T19:17:44.472Z,71.02
2023-01-11T19:20:15.364Z,70.36
2023-01-11T19:22:45.574Z,68.24
2023-01-11T19:25:16.923Z,68.16
2023-01-11T19:27:50.298Z,68.68
2023-01-11T19:30:17.979Z,69.24
2023-01-11T19:32:52.674Z,70.11
2023-01-11T19:35:20.415Z,70.32
2023-01-11T19:37:47.672Z,68.84
2023-01-11T19:40:15.043Z,68.59
2023-01-11T19:42:42.344Z,69.24
2023-01-11T19:45:12.160Z,69.88
2023-01-11T19:47:40.076Z,70.57
2023-01-11T19:50:11.820Z,70.55
2023-01-11T19:52:39.513Z,68.74
2023-01-11T19:55:10.865Z,68.15
2023-01-11T19:57:38.587Z,68.47
2023-01-11T20:00:06.989Z,69.08
2023-01-11T20:02:43.596Z,69.83
2023-01-11T20:05:10.886Z,69.73
2023-01-11T20:07:40.463Z,68.53
2023-01-11T20:10:08.422Z,68.82
2023-01-11T20:12:39.361Z,69.29
2023-01-11T20:15:07.531Z,70.49
2023-01-11T20:17:38.477Z,71.77
2023-01-11T20:20:09.422Z,70.86
2023-01-11T20:22:36.948Z,68.88
2023-01-11T20:25:04.537Z,68.44
2023-01-11T20:27:34.123Z,69.14
2023-01-11T20:30:04.439Z,69.86
2023-01-11T20:32:42.005Z,70.37
2023-01-11T20:35:10.529Z,70.07
2023-01-11T20:37:37.914Z,68.47
2023-01-11T20:40:08.109Z,67.69
2023-01-11T20:42:38.312Z,67.51
2023-01-11T20:45:06.518Z,68.14
2023-01-11T20:47:58.649Z,69.11
2023-01-11T20:50:38.798Z,70.30
2023-01-11T20:53:15.975Z,69.03
2023-01-11T20:55:48.717Z,67.44
2023-01-11T20:58:16.205Z,67.54
2023-01-11T21:00:46.009Z,68.20
2023-01-11T21:03:20.159Z,68.77
2023-01-11T21:05:53.890Z,69.37
2023-01-11T21:08:21.524Z,70.81
2023-01-11T21:10:48.883Z,70.80
2023-01-11T21:13:17.181Z,69.27
2023-01-11T21:15:45.066Z,68.41
2023-01-11T21:18:16.047Z,68.89
2023-01-11T21:20:49.219Z,70.01
2023-01-11T21:23:16.810Z,71.29
2023-01-11T21:25:47.108Z,70.68
2023-01-11T21:28:14.807Z,69.00
2023-01-11T21:30:42.238Z,69.02
2023-01-11T21:33:10.070Z,69.48
2023-01-11T21:35:39.938Z,70.14
2023-01-11T21:38:07.477Z,70.75
2023-01-11T21:40:35.138Z,69.90
2023-01-11T21:43:03.148Z,68.27
2023-01-11T21:46:24.203Z,67.95
2023-01-11T21:50:32.363Z,67.80
2023-01-11T21:54:19.643Z,69.64
2023-01-11T21:57:11.530Z,71.11
2023-01-11T21:59:48.857Z,69.56
2023-01-11T22:02:16.050Z,67.83
2023-01-11T22:05:05.246Z,66.93
